Time;durP1;ratioP1;P1;durP2;ratioP2;P2;SDS_P1;SDS_P2;PMS_P1;PMS_P2;Temp;Humidity;BMP_temperature;BMP_pressure;BME280_temperature;BME280_humidity;BME280_pressure;Samples;Min_cycle;Max_cycle;Signal;HPM_P1;HPM_P2
2022/12/13 00:00:44;;;;;;;24.73;17.27;;;;;;;;;;5078692;28;20485;-89
2022/12/13 00:03:12;;;;;;;27.67;20.80;;;;;;;;;;5096365;28;20461;-90
2022/12/13 00:05:44;;;;;;;30.60;20.23;;;;;;;;;;5079286;28;20477;-90
2022/12/13 00:08:12;;;;;;;28.53;17.90;;;;;;;;;;5079034;28;20533;-91
2022/12/13 00:10:41;;;;;;;24.63;18.90;;;;;;;;;;5079575;28;20474;-90
2022/12/13 00:13:10;;;;;;;22.10;12.77;;;;;;;;;;5073277;28;20440;-90
2022/12/13 00:15:39;;;;;;;10.00;5.90;;;;;;;;;;5090319;28;20471;-90
2022/12/13 00:18:07;;;;;;;8.13;6.50;;;;;;;;;;5066315;28;20489;-90
2022/12/13 00:20:40;;;;;;;13.53;9.20;;;;;;;;;;5065952;28;20445;-90
2022/12/13 00:23:08;;;;;;;26.80;17.53;;;;;;;;;;5079270;28;20443;-89
2022/12/13 00:25:37;;;;;;;29.93;19.67;;;;;;;;;;5096945;28;20451;-90
2022/12/13 00:28:05;;;;;;;23.50;16.33;;;;;;;;;;5097083;28;20442;-91
2022/12/13 00:30:35;;;;;;;13.83;9.57;;;;;;;;;;5097190;28;20566;-90
2022/12/13 00:33:05;;;;;;;26.47;16.33;;;;;;;;;;5097295;28;20447;-90
2022/12/13 00:35:34;;;;;;;7.63;6.83;;;;;;;;;;5097516;28;20470;-90
2022/12/13 00:38:02;;;;;;;25.93;18.40;;;;;;;;;;5097704;28;20435;-91
2022/12/13 00:40:30;;;;;;;14.93;9.80;;;;;;;;;;5079951;28;20496;-90
2022/12/13 00:42:59;;;;;;;30.67;19.07;;;;;;;;;;5080874;28;20500;-91
2022/12/13 00:45:27;;;;;;;30.57;20.73;;;;;;;;;;5075256;28;20439;-90
2022/12/13 00:47:57;;;;;;;23.27;17.30;;;;;;;;;;5072931;28;20457;-90
2022/12/13 00:50:26;;;;;;;32.23;22.57;;;;;;;;;;5080308;28;20496;-90
2022/12/13 00:52:54;;;;;;;29.20;20.60;;;;;;;;;;5098488;28;20461;-90
2022/12/13 00:55:22;;;;;;;30.80;21.80;;;;;;;;;;5060630;28;20458;-90
2022/12/13 00:57:52;;;;;;;26.73;18.57;;;;;;;;;;5060554;28;20451;-90
2022/12/13 01:00:20;;;;;;;24.97;16.83;;;;;;;;;;5080161;28;20439;-90
2022/12/13 01:02:49;;;;;;;32.70;21.03;;;;;;;;;;5065743;28;20444;-90
2022/12/13 01:05:19;;;;;;;29.67;17.20;;;;;;;;;;5079402;28;20471;-90
2022/12/13 01:08:07;;;;;;;26.27;20.10;;;;;;;;;;5082842;28;20458;-90
2022/12/13 01:10:38;;;;;;;29.40;20.07;;;;;;;;;;5082470;28;20508;-90
2022/12/13 01:13:06;;;;;;;27.60;19.47;;;;;;;;;;5082382;28;20530;-90
2022/12/13 01:15:35;;;;;;;22.33;16.27;;;;;;;;;;5068593;28;20459;-91
2022/12/13 01:18:03;;;;;;;31.23;20.47;;;;;;;;;;5085569;28;20441;-90
2022/12/13 01:20:33;;;;;;;25.47;17.40;;;;;;;;;;5081196;28;20451;-90
2022/12/13 01:23:02;;;;;;;26.17;17.27;;;;;;;;;;5098319;28;20439;-90
2022/12/13 01:25:32;;;;;;;24.87;15.40;;;;;;;;;;5079858;28;20480;-91
2022/12/13 01:28:00;;;;;;;23.53;14.90;;;;;;;;;;5079521;28;20439;-91
2022/12/13 01:30:29;;;;;;;22.00;16.87;;;;;;;;;;5097617;28;20539;-90
2022/12/13 01:32:57;;;;;;;29.00;18.40;;;;;;;;;;5079637;28;20445;-90
2022/12/13 01:35:25;;;;;;;22.50;15.33;;;;;;;;;;5078847;28;20447;-90
2022/12/13 01:37:55;;;;;;;28.23;18.50;;;;;;;;;;5079055;28;20442;-90
2022/12/13 01:40:25;;;;;;;26.53;16.40;;;;;;;;;;5078269;28;20478;-90
2022/12/13 01:42:54;;;;;;;27.57;18.47;;;;;;;;;;5078828;28;20439;-91
2022/12/13 01:45:25;;;;;;;19.93;14.53;;;;;;;;;;5078709;28;20455;-91
2022/12/13 01:47:55;;;;;;;18.63;14.47;;;;;;;;;;5066791;28;20509;-90
2022/12/13 01:50:28;;;;;;;27.07;17.67;;;;;;;;;;5074540;28;20478;-91
2022/12/13 01:52:58;;;;;;;24.80;16.53;;;;;;;;;;5078193;28;20442;-91
2022/12/13 01:55:30;;;;;;;26.50;17.27;;;;;;;;;;5075855;28;20455;-91
2022/12/13 01:58:00;;;;;;;24.67;15.20;;;;;;;;;;5091249;28;20450;-90
2022/12/13 02:00:29;;;;;;;20.60;13.40;;;;;;;;;;5069575;28;20497;-90
2022/12/13 02:02:58;;;;;;;2.93;2.80;;;;;;;;;;5074355;28;20442;-90
2022/12/13 02:05:29;;;;;;;17.77;11.13;;;;;;;;;;5068093;28;20456;-91
2022/12/13 02:08:00;;;;;;;6.43;5.80;;;;;;;;;;5092717;28;20484;-90
2022/12/13 02:10:30;;;;;;;8.90;8.10;;;;;;;;;;5077435;28;20495;-91
2022/12/13 02:12:58;;;;;;;15.23;11.00;;;;;;;;;;5077592;28;20468;-91
2022/12/13 02:15:29;;;;;;;24.00;15.93;;;;;;;;;;5095437;28;20445;-91
2022/12/13 02:18:13;;;;;;;8.07;5.17;;;;;;;;;;5063513;28;20445;-91
2022/12/13 02:20:52;;;;;;;18.20;13.47;;;;;;;;;;5074997;28;20458;-90
2022/12/13 02:23:36;;;;;;;26.03;18.00;;;;;;;;;;5093746;28;20494;-90
2022/12/13 02:26:19;;;;;;;26.53;19.23;;;;;;;;;;5044512;28;20450;-90
2022/12/13 02:28:57;;;;;;;24.63;16.33;;;;;;;;;;5089957;28;20514;-90
2022/12/13 02:31:29;;;;;;;19.70;10.50;;;;;;;;;;5090178;28;20481;-90
2022/12/13 02:34:01;;;;;;;2.27;2.17;;;;;;;;;;5095277;28;20500;-90
2022/12/13 02:36:31;;;;;;;4.10;3.43;;;;;;;;;;5074142;28;20452;-90
2022/12/13 02:39:08;;;;;;;3.03;2.93;;;;;;;;;;5076872;28;20460;-90
2022/12/13 02:41:38;;;;;;;8.83;6.73;;;;;;;;;;5095563;28;20430;-90
2022/12/13 02:44:08;;;;;;;2.97;2.70;;;;;;;;;;5078078;28;20443;-90
2022/12/13 02:46:53;;;;;;;2.03;1.97;;;;;;;;;;5077244;28;20442;-90
2022/12/13 02:49:22;;;;;;;3.90;3.73;;;;;;;;;;5077611;28;20535;-91
2022/12/13 02:51:51;;;;;;;1.40;1.40;;;;;;;;;;5095625;28;20502;-90
2022/12/13 02:54:19;;;;;;;0.90;0.90;;;;;;;;;;5077595;28;20465;-90
2022/12/13 02:56:54;;;;;;;0.90;0.90;;;;;;;;;;5077463;28;20457;-90
2022/12/13 02:59:22;;;;;;;8.40;3.07;;;;;;;;;;5061905;28;20458;-90
2022/12/13 03:01:57;;;;;;;2.37;2.27;;;;;;;;;;5069977;28;20470;-90
2022/12/13 03:06:28;;;;;;;1.00;1.00;;;;;;;;;;5077256;28;20467;-90
2022/12/13 03:07:33;;;;;;;2.67;2.53;;;;;;;;;;5077384;28;20450;-90
2022/12/13 03:10:03;;;;;;;13.23;6.93;;;;;;;;;;5094884;28;20439;-89
2022/12/13 03:15:24;;;;;;;4.93;4.53;;;;;;;;;;5094382;28;20439;-90
2022/12/13 03:17:56;;;;;;;1.03;1.03;;;;;;;;;;5081886;28;20452;-90
2022/12/13 03:20:26;;;;;;;2.97;2.87;;;;;;;;;;5057883;28;20560;-90
2022/12/13 03:22:55;;;;;;;3.10;2.73;;;;;;;;;;5072317;28;20477;-90
2022/12/13 03:25:31;;;;;;;3.80;3.60;;;;;;;;;;5078183;28;20450;-90
2022/12/13 03:28:00;;;;;;;0.90;0.90;;;;;;;;;;5075964;28;20506;-90
2022/12/13 03:30:29;;;;;;;0.80;0.80;;;;;;;;;;5078085;28;20491;-90
2022/12/13 03:32:59;;;;;;;1.00;1.00;;;;;;;;;;5077724;28;20484;-90
2022/12/13 03:35:28;;;;;;;1.00;1.00;;;;;;;;;;5096567;28;20228;-90
2022/12/13 03:38:12;;;;;;;5.03;4.53;;;;;;;;;;5072041;28;20493;-90
2022/12/13 03:40:51;;;;;;;3.30;3.10;;;;;;;;;;5060319;28;20498;-90
2022/12/13 03:43:19;;;;;;;10.93;5.93;;;;;;;;;;5078630;28;20447;-91
2022/12/13 03:45:50;;;;;;;1.00;1.00;;;;;;;;;;5078139;28;20196;-90
2022/12/13 03:48:20;;;;;;;4.20;3.63;;;;;;;;;;5078912;28;20224;-89
2022/12/13 03:50:50;;;;;;;7.83;4.00;;;;;;;;;;5079424;28;20493;-90
2022/12/13 03:53:19;;;;;;;0.90;0.90;;;;;;;;;;5078711;28;20446;-90
2022/12/13 03:56:00;;;;;;;1.00;1.00;;;;;;;;;;5078908;28;20542;-89
2022/12/13 03:58:29;;;;;;;0.90;0.90;;;;;;;;;;5096625;28;20431;-90
2022/12/13 04:01:04;;;;;;;2.53;2.33;;;;;;;;;;5097494;28;20202;-90
2022/12/13 04:03:34;;;;;;;2.60;2.50;;;;;;;;;;5079473;28;20473;-90
2022/12/13 04:06:02;;;;;;;1.10;1.10;;;;;;;;;;5080089;28;20526;-90
2022/12/13 04:08:31;;;;;;;1.47;1.40;;;;;;;;;;5084233;28;20486;-90
2022/12/13 04:13:31;;;;;;;0.90;0.90;;;;;;;;;;5076024;28;20541;-89
2022/12/13 04:13:47;;;;;;;1.10;1.10;;;;;;;;;;5078518;28;20457;-90
2022/12/13 04:16:15;;;;;;;2.17;2.07;;;;;;;;;;5079320;28;20443;-89
2022/12/13 04:18:45;;;;;;;0.90;0.90;;;;;;;;;;5084381;28;20479;-90
2022/12/13 04:21:15;;;;;;;1.87;1.87;;;;;;;;;;5078779;28;20446;-89
2022/12/13 04:23:43;;;;;;;10.70;8.53;;;;;;;;;;5071819;28;20201;-90
2022/12/13 04:26:14;;;;;;;11.30;9.63;;;;;;;;;;5072983;28;20502;-89
2022/12/13 04:28:42;;;;;;;26.20;14.63;;;;;;;;;;5085592;28;20431;-89
2022/12/13 04:31:10;;;;;;;23.87;13.70;;;;;;;;;;5079184;28;20470;-90
2022/12/13 04:33:39;;;;;;;13.30;7.17;;;;;;;;;;5079713;28;20506;-90
2022/12/13 04:36:09;;;;;;;2.83;2.73;;;;;;;;;;5079761;28;20454;-90
2022/12/13 04:38:38;;;;;;;6.37;3.10;;;;;;;;;;5079872;28;20503;-90
2022/12/13 04:41:07;;;;;;;1.40;1.40;;;;;;;;;;5081391;28;20457;-90
2022/12/13 04:43:35;;;;;;;26.40;2.90;;;;;;;;;;5084197;28;20966;-90
2022/12/13 04:46:07;;;;;;;3.63;3.53;;;;;;;;;;5083809;28;20503;-90
2022/12/13 04:48:35;;;;;;;3.63;3.43;;;;;;;;;;5083627;28;20461;-90
2022/12/13 04:51:08;;;;;;;1.00;1.00;;;;;;;;;;5084465;28;20488;-90
2022/12/13 04:53:37;;;;;;;2.23;2.20;;;;;;;;;;5083571;28;20439;-90
2022/12/13 04:56:06;;;;;;;2.33;2.23;;;;;;;;;;5067933;28;20466;-90
2022/12/13 04:58:40;;;;;;;3.77;3.57;;;;;;;;;;5063305;28;20451;-90
2022/12/13 05:01:08;;;;;;;2.03;2.00;;;;;;;;;;5089660;28;20492;-91
2022/12/13 05:03:39;;;;;;;2.27;2.17;;;;;;;;;;5100693;28;20553;-90
2022/12/13 05:06:12;;;;;;;1.43;1.43;;;;;;;;;;5101608;28;20471;-90
2022/12/13 05:08:59;;;;;;;1.00;1.00;;;;;;;;;;5082458;28;20435;-90
2022/12/13 05:11:30;;;;;;;1.80;1.80;;;;;;;;;;5083421;28;20512;-89
2022/12/13 05:14:03;;;;;;;14.87;11.33;;;;;;;;;;5069485;28;20454;-90
2022/12/13 05:16:31;;;;;;;1.33;1.33;;;;;;;;;;5081760;28;20476;-90
2022/12/13 05:19:00;;;;;;;0.90;0.90;;;;;;;;;;5068928;28;20505;-90
2022/12/13 05:21:28;;;;;;;1.00;1.00;;;;;;;;;;5089164;28;20430;-90
2022/12/13 05:23:58;;;;;;;1.83;1.83;;;;;;;;;;5088319;28;20451;-89
2022/12/13 05:26:30;;;;;;;0.90;0.90;;;;;;;;;;5087400;28;20443;-89
2022/12/13 05:29:04;;;;;;;0.93;0.93;;;;;;;;;;5097427;28;20198;-89
2022/12/13 05:31:35;;;;;;;1.30;1.30;;;;;;;;;;5103641;28;20490;-90
2022/12/13 05:34:06;;;;;;;1.00;1.00;;;;;;;;;;5106406;28;20538;-90
2022/12/13 05:36:38;;;;;;;1.00;1.00;;;;;;;;;;5088010;28;20201;-89
2022/12/13 05:39:11;;;;;;;0.90;0.90;;;;;;;;;;5088196;28;20442;-89
2022/12/13 05:42:00;;;;;;;0.90;0.90;;;;;;;;;;5088252;28;20455;-89
2022/12/13 05:44:31;;;;;;;13.90;9.00;;;;;;;;;;5086741;28;20488;-90
2022/12/13 05:47:16;;;;;;;4.27;2.07;;;;;;;;;;5106030;28;20521;-90
2022/12/13 05:49:53;;;;;;;1.30;1.30;;;;;;;;;;5091973;28;20868;-89
2022/12/13 05:52:26;;;;;;;6.57;5.77;;;;;;;;;;5084929;28;20495;-90
2022/12/13 05:55:10;;;;;;;2.70;2.50;;;;;;;;;;5085004;28;20450;-89
2022/12/13 05:57:39;;;;;;;6.13;3.17;;;;;;;;;;5083865;28;20455;-89
2022/12/13 06:00:08;;;;;;;3.80;3.57;;;;;;;;;;5083338;28;20443;-89
2022/12/13 06:03:05;;;;;;;1.53;1.53;;;;;;;;;;5073829;28;20508;-89
2022/12/13 06:05:41;;;;;;;2.30;2.20;;;;;;;;;;5087686;28;20454;-90
2022/12/13 06:08:09;;;;;;;2.07;2.03;;;;;;;;;;5082039;28;20434;-90
2022/12/13 06:10:56;;;;;;;17.27;5.90;;;;;;;;;;5087672;28;20524;-90
2022/12/13 06:13:39;;;;;;;5.00;3.00;;;;;;;;;;5100070;28;20555;-89
2022/12/13 06:16:10;;;;;;;27.53;12.10;;;;;;;;;;5084391;28;20519;-90
2022/12/13 06:18:54;;;;;;;23.50;14.67;;;;;;;;;;5083879;28;20439;-90
2022/12/13 06:21:35;;;;;;;14.53;11.63;;;;;;;;;;5083564;28;20466;-89
2022/12/13 06:24:16;;;;;;;19.07;14.13;;;;;;;;;;5085011;28;20572;-89
2022/12/13 06:26:46;;;;;;;20.30;12.67;;;;;;;;;;5083320;28;20453;-90
2022/12/13 06:29:14;;;;;;;17.90;8.30;;;;;;;;;;5082440;28;20438;-89
2022/12/13 06:31:53;;;;;;;16.07;10.30;;;;;;;;;;5070113;28;20476;-90
2022/12/13 06:34:34;;;;;;;20.27;13.07;;;;;;;;;;5085627;28;20453;-88
2022/12/13 06:37:04;;;;;;;14.77;9.87;;;;;;;;;;5095022;28;20545;-89
2022/12/13 06:39:37;;;;;;;32.10;21.13;;;;;;;;;;5063928;28;20451;-88
2022/12/13 06:42:09;;;;;;;33.57;19.27;;;;;;;;;;5077235;28;20498;-88
2022/12/13 06:44:39;;;;;;;29.10;18.17;;;;;;;;;;5076572;28;20435;-89
2022/12/13 06:47:08;;;;;;;31.03;21.33;;;;;;;;;;5095196;28;20438;-89
2022/12/13 06:49:59;;;;;;;39.07;23.60;;;;;;;;;;5066988;28;20455;-89
2022/12/13 06:52:35;;;;;;;34.77;22.53;;;;;;;;;;5074269;28;20462;-88
2022/12/13 06:55:10;;;;;;;28.90;20.03;;;;;;;;;;5077153;28;20442;-89
2022/12/13 06:57:43;;;;;;;13.90;9.67;;;;;;;;;;5081388;28;20451;-89
2022/12/13 07:00:16;;;;;;;36.53;21.97;;;;;;;;;;5076975;28;20469;-88
2022/12/13 07:02:52;;;;;;;25.23;16.43;;;;;;;;;;5075277;28;20501;-89
2022/12/13 07:05:21;;;;;;;15.67;12.43;;;;;;;;;;5072609;28;20481;-88
2022/12/13 07:07:55;;;;;;;5.10;4.80;;;;;;;;;;5094233;28;20446;-88
2022/12/13 07:13:42;;;;;;;29.43;19.20;;;;;;;;;;5063684;28;20470;-87
2022/12/13 07:16:11;;;;;;;22.63;14.20;;;;;;;;;;5082958;28;20443;-87
2022/12/13 07:18:39;;;;;;;12.70;11.00;;;;;;;;;;5070343;28;20439;-86
2022/12/13 07:21:09;;;;;;;24.07;17.00;;;;;;;;;;5069805;28;20461;-86
2022/12/13 07:23:49;;;;;;;18.27;11.77;;;;;;;;;;5075432;28;20507;-86
2022/12/13 07:26:23;;;;;;;26.97;16.93;;;;;;;;;;5075915;28;20453;-85
2022/12/13 07:28:53;;;;;;;22.80;13.77;;;;;;;;;;5068153;28;20457;-85
2022/12/13 07:31:23;;;;;;;14.70;11.30;;;;;;;;;;5064125;28;20461;-85
2022/12/13 07:33:55;;;;;;;26.10;16.80;;;;;;;;;;5072081;28;20505;-83
2022/12/13 07:36:32;;;;;;;27.40;6.70;;;;;;;;;;5080581;28;20447;-85
2022/12/13 07:46:12;;;;;;;35.93;22.17;;;;;;;;;;5066926;28;20474;-87
2022/12/13 07:49:18;;;;;;;22.70;14.47;;;;;;;;;;5071636;28;20519;-87
2022/12/13 07:52:20;;;;;;;27.23;17.57;;;;;;;;;;5063479;28;20471;-88
2022/12/13 07:55:36;;;;;;;23.77;16.40;;;;;;;;;;4969965;28;20470;-88
2022/12/13 07:59:42;;;;;;;5.10;4.70;;;;;;;;;;4948143;28;20591;-88
2022/12/13 08:09:24;;;;;;;19.70;12.87;;;;;;;;;;5076436;28;20460;-87
2022/12/13 08:12:27;;;;;;;23.33;13.77;;;;;;;;;;5068418;28;20493;-89
2022/12/13 08:15:13;;;;;;;21.80;13.83;;;;;;;;;;5063084;28;20829;-86
2022/12/13 08:17:46;;;;;;;22.17;15.50;;;;;;;;;;5067360;28;20455;-86
2022/12/13 08:20:20;;;;;;;28.20;20.13;;;;;;;;;;5065861;28;20473;-86
2022/12/13 08:22:58;;;;;;;11.13;7.90;;;;;;;;;;5078887;28;20697;-86
2022/12/13 08:25:52;;;;;;;3.83;3.53;;;;;;;;;;5064713;28;20471;-87
2022/12/13 08:28:44;;;;;;;9.97;6.13;;;;;;;;;;5081208;28;20583;-87
2022/12/13 08:31:32;;;;;;;1.20;1.20;;;;;;;;;;5068712;28;20468;-87
2022/12/13 08:35:03;;;;;;;2.43;2.33;;;;;;;;;;5074102;28;20473;-87
2022/12/13 08:40:51;;;;;;;3.07;2.87;;;;;;;;;;5069236;28;20462;-88
2022/12/13 08:43:34;;;;;;;4.90;4.70;;;;;;;;;;5060869;28;20556;-85
2022/12/13 08:46:10;;;;;;;7.43;6.53;;;;;;;;;;5069722;28;20447;-88
2022/12/13 08:48:46;;;;;;;2.60;2.40;;;;;;;;;;5072835;28;20196;-87
2022/12/13 08:51:22;;;;;;;1.80;1.80;;;;;;;;;;5070219;28;20446;-87
2022/12/13 08:54:16;;;;;;;1.00;1.00;;;;;;;;;;5069736;28;20229;-88
2022/12/13 08:57:06;;;;;;;1.10;1.10;;;;;;;;;;5085053;28;20201;-86
2022/12/13 08:59:39;;;;;;;6.47;5.70;;;;;;;;;;5064010;28;20209;-87
2022/12/13 09:02:54;;;;;;;25.77;14.37;;;;;;;;;;5070326;28;20239;-87
2022/12/13 09:05:48;;;;;;;24.77;15.90;;;;;;;;;;4990338;28;20229;-87
2022/12/13 09:08:21;;;;;;;27.77;17.67;;;;;;;;;;5069467;28;20451;-86
2022/12/13 09:11:15;;;;;;;23.70;14.83;;;;;;;;;;5063194;28;20475;-87
2022/12/13 09:14:11;;;;;;;17.47;13.03;;;;;;;;;;5070411;28;20225;-87
2022/12/13 09:16:56;;;;;;;29.93;20.77;;;;;;;;;;5078907;28;20457;-87
2022/12/13 09:19:35;;;;;;;31.30;19.00;;;;;;;;;;5060813;28;20455;-85
2022/12/13 09:22:12;;;;;;;26.90;19.97;;;;;;;;;;5058605;28;20473;-86
2022/12/13 09:25:13;;;;;;;32.00;20.27;;;;;;;;;;5070900;28;20521;-86
2022/12/13 09:27:56;;;;;;;31.13;20.03;;;;;;;;;;5059633;28;20463;-86
2022/12/13 09:30:29;;;;;;;24.77;14.17;;;;;;;;;;5071928;28;20227;-86
2022/12/13 09:33:04;;;;;;;29.70;19.63;;;;;;;;;;5084120;28;20433;-86
2022/12/13 09:35:53;;;;;;;13.97;12.03;;;;;;;;;;5075698;28;20439;-86
2022/12/13 09:38:27;;;;;;;18.90;12.97;;;;;;;;;;5078159;28;20193;-86
2022/12/13 09:41:00;;;;;;;31.90;22.20;;;;;;;;;;5070259;28;20453;-85
2022/12/13 09:43:47;;;;;;;22.40;12.90;;;;;;;;;;5070781;28;20438;-87
2022/12/13 09:46:46;;;;;;;15.47;10.27;;;;;;;;;;5075151;28;20450;-87
2022/12/13 09:50:01;;;;;;;30.10;22.27;;;;;;;;;;5070893;28;20537;-86
2022/12/13 09:52:38;;;;;;;22.47;15.40;;;;;;;;;;5079472;28;20204;-85
2022/12/13 09:55:33;;;;;;;26.43;17.87;;;;;;;;;;5070888;28;20224;-87
2022/12/13 09:58:40;;;;;;;23.13;15.53;;;;;;;;;;5071701;28;20955;-87
2022/12/13 10:01:56;;;;;;;10.03;7.37;;;;;;;;;;5078843;28;20455;-86
2022/12/13 10:08:50;;;;;;;;;;;;;;;;;;;;;
2022/12/13 10:11:34;;;;;;;26.67;14.47;;;;;;;;;;5020022;28;20283;-85
2022/12/13 10:14:35;;;;;;;16.63;10.87;;;;;;;;;;5067152;28;20225;-86
2022/12/13 10:17:15;;;;;;;26.93;15.43;;;;;;;;;;5086528;28;20543;-85
2022/12/13 10:19:53;;;;;;;7.73;5.47;;;;;;;;;;5072209;28;20205;-85
2022/12/13 10:22:27;;;;;;;16.93;10.63;;;;;;;;;;5066653;28;20246;-86
2022/12/13 10:25:17;;;;;;;;;;;;;;;;;;;;;
2022/12/13 10:28:16;;;;;;;;;;;;;;;;;;;;;
2022/12/13 10:31:42;;;;;;;13.63;11.37;;;;;;;;;;5051508;28;20200;-86
2022/12/13 10:34:31;;;;;;;15.90;8.67;;;;;;;;;;5066243;28;20220;-85
2022/12/13 10:37:23;;;;;;;16.40;11.47;;;;;;;;;;5064544;28;20208;-85
2022/12/13 10:40:25;;;;;;;24.47;16.40;;;;;;;;;;5076001;28;20315;-85
2022/12/13 10:46:42;;;;;;;23.77;16.77;;;;;;;;;;5064909;28;20197;-85
2022/12/13 10:50:03;;;;;;;20.70;15.37;;;;;;;;;;5074770;28;20207;-85
2022/12/13 10:53:19;;;;;;;21.63;15.30;;;;;;;;;;5050927;28;20194;-87
2022/12/13 11:00:48;;;;;;;;;;;;;;;;;;;;;
2022/12/13 11:03:52;;;;;;;8.20;6.00;;;;;;;;;;4972430;28;20204;-85
2022/12/13 11:07:05;;;;;;;14.20;11.13;;;;;;;;;;4975617;28;20204;-86
2022/12/13 11:10:11;;;;;;;20.30;12.50;;;;;;;;;;4974149;28;20214;-85
2022/12/13 11:13:21;;;;;;;10.97;7.43;;;;;;;;;;4967278;28;20306;-87
2022/12/13 11:22:48;;;;;;;4.07;3.67;;;;;;;;;;5065718;28;20225;-86
2022/12/13 11:25:40;;;;;;;12.50;9.60;;;;;;;;;;5069832;28;20196;-85
2022/12/13 11:28:24;;;;;;;18.23;13.27;;;;;;;;;;5069395;28;20201;-85
2022/12/13 11:31:17;;;;;;;11.63;10.30;;;;;;;;;;5061161;28;20209;-86
2022/12/13 11:33:59;;;;;;;21.90;15.60;;;;;;;;;;5066207;28;20204;-85
2022/12/13 11:40:23;;;;;;;23.33;16.57;;;;;;;;;;5065194;28;20227;-86
2022/12/13 11:43:10;;;;;;;12.03;8.90;;;;;;;;;;5067917;28;20314;-85
2022/12/13 11:46:17;;;;;;;21.50;16.00;;;;;;;;;;5067120;28;20215;-87
2022/12/13 11:49:19;;;;;;;12.80;8.50;;;;;;;;;;5067534;28;20196;-87
2022/12/13 11:52:08;;;;;;;23.17;14.67;;;;;;;;;;5069000;28;20529;-85
2022/12/13 11:54:46;;;;;;;18.63;15.00;;;;;;;;;;5069688;28;20275;-85
2022/12/13 11:57:37;;;;;;;27.00;17.87;;;;;;;;;;5077476;28;20327;-87
2022/12/13 12:00:19;;;;;;;19.60;15.30;;;;;;;;;;5062855;28;20210;-85
2022/12/13 12:06:30;;;;;;;21.47;16.90;;;;;;;;;;5073802;28;20253;-87
2022/12/13 12:09:44;;;;;;;22.97;15.57;;;;;;;;;;5083440;28;20223;-87
2022/12/13 12:12:40;;;;;;;21.60;17.93;;;;;;;;;;5062612;28;20233;-88
2022/12/13 12:15:44;;;;;;;21.60;15.37;;;;;;;;;;5060614;28;20212;-88
2022/12/13 12:18:32;;;;;;;32.17;22.93;;;;;;;;;;5066318;28;20250;-86
2022/12/13 12:21:18;;;;;;;17.87;12.83;;;;;;;;;;5086720;28;20221;-86
2022/12/13 12:24:04;;;;;;;25.47;16.50;;;;;;;;;;5069201;28;20208;-87
2022/12/13 12:26:53;;;;;;;22.90;17.90;;;;;;;;;;5078388;28;20223;-87
2022/12/13 12:29:54;;;;;;;25.47;19.87;;;;;;;;;;5084514;28;20321;-88
2022/12/13 12:33:01;;;;;;;22.57;14.77;;;;;;;;;;5059389;28;20200;-86
2022/12/13 12:35:55;;;;;;;25.03;16.03;;;;;;;;;;5078777;28;20219;-87
2022/12/13 12:39:06;;;;;;;25.07;18.17;;;;;;;;;;5065596;28;20212;-85
2022/12/13 12:41:47;;;;;;;16.97;12.30;;;;;;;;;;5067185;28;20235;-86
2022/12/13 12:44:39;;;;;;;19.47;15.37;;;;;;;;;;5068222;28;20208;-85
2022/12/13 12:47:29;;;;;;;22.10;15.40;;;;;;;;;;5079733;28;20206;-86
2022/12/13 12:50:35;;;;;;;29.37;16.67;;;;;;;;;;5068685;28;20193;-85
2022/12/13 12:53:20;;;;;;;25.37;17.33;;;;;;;;;;5067232;28;20224;-86
2022/12/13 12:56:14;;;;;;;21.17;14.47;;;;;;;;;;5065435;28;20331;-86
2022/12/13 12:58:55;;;;;;;15.67;11.77;;;;;;;;;;5072923;28;20205;-86
2022/12/13 13:01:47;;;;;;;23.00;14.93;;;;;;;;;;5066141;28;20204;-87
2022/12/13 13:04:50;;;;;;;2.17;2.07;;;;;;;;;;5069335;28;20242;-87
2022/12/13 13:07:30;;;;;;;6.00;3.53;;;;;;;;;;5073530;28;20197;-86
2022/12/13 13:10:12;;;;;;;0.90;0.90;;;;;;;;;;5070188;28;20298;-85
2022/12/13 13:12:53;;;;;;;4.43;4.20;;;;;;;;;;5084998;28;20229;-86
2022/12/13 13:15:58;;;;;;;3.73;3.53;;;;;;;;;;5071182;28;20209;-86
2022/12/13 13:18:54;;;;;;;6.57;5.73;;;;;;;;;;5090113;28;20197;-87
2022/12/13 13:22:09;;;;;;;2.30;2.13;;;;;;;;;;5067426;28;20205;-86
2022/12/13 13:25:20;;;;;;;4.43;4.13;;;;;;;;;;5074571;28;20196;-87
2022/12/13 13:28:01;;;;;;;1.83;1.77;;;;;;;;;;5070516;28;20204;-84
2022/12/13 13:30:31;;;;;;;9.27;5.83;;;;;;;;;;5067661;28;20200;-84
2022/12/13 13:33:01;;;;;;;11.07;7.47;;;;;;;;;;5072746;28;20208;-84
2022/12/13 13:35:52;;;;;;;5.90;5.33;;;;;;;;;;5072863;28;20213;-84
2022/12/13 13:39:02;;;;;;;3.57;3.33;;;;;;;;;;5073268;28;20240;-86
2022/12/13 13:42:01;;;;;;;4.27;3.97;;;;;;;;;;5087704;28;20190;-87
2022/12/13 13:44:56;;;;;;;5.33;4.40;;;;;;;;;;5072722;28;20203;-87
2022/12/13 13:47:39;;;;;;;7.10;4.53;;;;;;;;;;5090136;28;20195;-86
2022/12/13 13:50:35;;;;;;;8.23;7.40;;;;;;;;;;5057453;28;20190;-87
2022/12/13 13:53:26;;;;;;;7.57;6.83;;;;;;;;;;5092327;28;20203;-86
2022/12/13 13:56:00;;;;;;;7.17;6.70;;;;;;;;;;5059614;28;20291;-86
2022/12/13 13:58:48;;;;;;;3.92;3.72;;;;;;;;;;5066292;28;20471;-85
2022/12/13 14:01:34;;;;;;;8.47;7.30;;;;;;;;;;5073712;28;20243;-85
2022/12/13 14:04:22;;;;;;;6.20;4.43;;;;;;;;;;5074788;28;20271;-85
2022/12/13 14:07:03;;;;;;;2.07;2.07;;;;;;;;;;5076061;28;20202;-85
2022/12/13 14:09:54;;;;;;;2.90;2.57;;;;;;;;;;5065800;28;20210;-85
2022/12/13 14:12:40;;;;;;;3.60;3.30;;;;;;;;;;5066010;28;20294;-86
2022/12/13 14:15:36;;;;;;;3.33;3.13;;;;;;;;;;5075708;28;20212;-86
2022/12/13 14:18:21;;;;;;;1.87;1.87;;;;;;;;;;5076034;28;20209;-86
2022/12/13 14:20:54;;;;;;;6.47;5.30;;;;;;;;;;5068720;28;20205;-86
2022/12/13 14:23:32;;;;;;;5.03;4.63;;;;;;;;;;5073137;28;20197;-86
2022/12/13 14:26:12;;;;;;;3.00;2.80;;;;;;;;;;5071628;28;20279;-86
2022/12/13 14:28:48;;;;;;;4.83;4.57;;;;;;;;;;5077768;28;20288;-87
2022/12/13 14:31:20;;;;;;;3.60;2.90;;;;;;;;;;5063615;28;20202;-86
2022/12/13 14:33:55;;;;;;;7.77;4.40;;;;;;;;;;5077836;28;20200;-87
2022/12/13 14:36:28;;;;;;;3.93;3.60;;;;;;;;;;5072169;28;20227;-86
2022/12/13 14:39:03;;;;;;;6.93;6.27;;;;;;;;;;5057988;28;20209;-86
2022/12/13 14:41:55;;;;;;;8.00;5.20;;;;;;;;;;5058080;28;20226;-86
2022/12/13 14:44:28;;;;;;;6.67;5.47;;;;;;;;;;5075701;28;20199;-86
2022/12/13 14:46:57;;;;;;;9.40;6.30;;;;;;;;;;5077404;28;20288;-86
2022/12/13 14:49:29;;;;;;;5.53;4.93;;;;;;;;;;5077021;28;20201;-87
2022/12/13 14:52:04;;;;;;;4.27;3.77;;;;;;;;;;5063541;28;20251;-85
2022/12/13 14:54:42;;;;;;;15.30;11.37;;;;;;;;;;5064670;28;20201;-87
2022/12/13 14:57:17;;;;;;;9.47;6.90;;;;;;;;;;5074099;28;20206;-87
2022/12/13 14:59:47;;;;;;;3.13;2.93;;;;;;;;;;5067666;28;20254;-86
2022/12/13 15:02:22;;;;;;;2.77;2.57;;;;;;;;;;5072282;28;20201;-86
2022/12/13 15:05:04;;;;;;;5.50;5.00;;;;;;;;;;5057125;28;20221;-86
2022/12/13 15:07:35;;;;;;;8.17;5.50;;;;;;;;;;5077000;28;20268;-86
2022/12/13 15:10:19;;;;;;;5.03;4.33;;;;;;;;;;5076800;28;20231;-87
2022/12/13 15:12:48;;;;;;;4.47;4.27;;;;;;;;;;5064896;28;20229;-86
2022/12/13 15:15:22;;;;;;;1.80;1.80;;;;;;;;;;5074684;28;20201;-86
2022/12/13 15:18:05;;;;;;;4.00;2.60;;;;;;;;;;5064229;28;20217;-86
2022/12/13 15:20:41;;;;;;;9.63;6.97;;;;;;;;;;5065239;28;20205;-86
2022/12/13 15:23:16;;;;;;;2.10;2.07;;;;;;;;;;5072992;28;20201;-86
2022/12/13 15:25:46;;;;;;;12.10;6.37;;;;;;;;;;5067576;28;20204;-86
2022/12/13 15:28:19;;;;;;;2.87;2.73;;;;;;;;;;5076225;28;20197;-86
2022/12/13 15:30:50;;;;;;;3.27;3.17;;;;;;;;;;5076848;28;20222;-87
2022/12/13 15:33:20;;;;;;;6.23;4.50;;;;;;;;;;5075925;28;20201;-86
2022/12/13 15:36:00;;;;;;;11.87;7.87;;;;;;;;;;5063080;28;20198;-85
2022/12/13 15:38:33;;;;;;;8.33;6.23;;;;;;;;;;5076528;28;20224;-86
2022/12/13 15:41:03;;;;;;;3.93;3.70;;;;;;;;;;5076191;28;20295;-86
2022/12/13 15:43:36;;;;;;;17.43;8.60;;;;;;;;;;5066111;28;20265;-86
2022/12/13 15:46:06;;;;;;;13.37;9.37;;;;;;;;;;5074644;28;20193;-86
2022/12/13 15:48:38;;;;;;;6.87;5.07;;;;;;;;;;5075971;28;20201;-86
2022/12/13 15:51:12;;;;;;;18.97;12.50;;;;;;;;;;5056297;28;20194;-86
2022/12/13 15:54:04;;;;;;;13.43;9.30;;;;;;;;;;5072436;28;20216;-86
2022/12/13 15:56:34;;;;;;;4.80;4.37;;;;;;;;;;5076168;28;20197;-86
2022/12/13 15:59:24;;;;;;;9.80;5.57;;;;;;;;;;5062740;28;20197;-86
2022/12/13 16:01:52;;;;;;;13.07;10.10;;;;;;;;;;5075776;28;20200;-86
2022/12/13 16:04:28;;;;;;;12.53;8.13;;;;;;;;;;5075972;28;20455;-89
2022/12/13 16:06:59;;;;;;;7.60;6.83;;;;;;;;;;5072646;28;20197;-90
2022/12/13 16:09:29;;;;;;;4.73;2.73;;;;;;;;;;5066419;28;20197;-89
2022/12/13 16:12:11;;;;;;;7.90;5.57;;;;;;;;;;5075760;28;20256;-88
2022/12/13 16:15:16;;;;;;;7.20;6.03;;;;;;;;;;5070523;28;20193;-88
2022/12/13 16:18:05;;;;;;;6.30;5.47;;;;;;;;;;5076308;28;20212;-87
2022/12/13 16:20:37;;;;;;;10.93;8.43;;;;;;;;;;5075569;28;20371;-87
2022/12/13 16:23:07;;;;;;;11.63;9.90;;;;;;;;;;5059152;28;20202;-88
2022/12/13 16:25:38;;;;;;;22.20;12.93;;;;;;;;;;5066442;28;20208;-88
2022/12/13 16:28:12;;;;;;;14.10;7.40;;;;;;;;;;5075298;28;20252;-87
2022/12/13 16:30:57;;;;;;;10.40;9.47;;;;;;;;;;5076312;28;20223;-87
2022/12/13 16:33:31;;;;;;;16.73;12.10;;;;;;;;;;5063576;28;20208;-87
2022/12/13 16:36:01;;;;;;;5.70;3.53;;;;;;;;;;5075187;28;20205;-87